createdAt,value
2023-07-14T00:00:35.319Z,193.50
2023-07-14T00:01:35.430Z,193.28
2023-07-14T00:02:35.281Z,192.48
2023-07-14T00:03:35.374Z,193.16
2023-07-14T00:04:34.981Z,191.81
2023-07-14T00:05:35.249Z,191.81
2023-07-14T00:06:35.269Z,191.25
2023-07-14T00:07:35.231Z,191.36
2023-07-14T00:08:35.220Z,191.14
2023-07-14T00:09:35.196Z,189.92
2023-07-14T00:10:37.729Z,190.58
2023-07-14T00:11:35.151Z,189.92
2023-07-14T00:12:35.202Z,190.80
2023-07-14T00:13:35.157Z,190.91
2023-07-14T00:14:35.130Z,188.94
2023-07-14T00:15:35.138Z,189.70
2023-07-14T00:16:35.145Z,189.81
2023-07-14T00:17:35.108Z,187.64
2023-07-14T00:18:35.078Z,188.94
2023-07-14T00:19:35.059Z,187.75
2023-07-14T00:20:35.060Z,188.72
2023-07-14T00:21:35.019Z,188.39
2023-07-14T00:22:35.068Z,188.50
2023-07-14T00:23:35.035Z,190.47
2023-07-14T00:24:35.019Z,189.26
2023-07-14T00:25:34.999Z,188.72
2023-07-14T00:26:34.963Z,188.18
2023-07-14T00:27:34.960Z,187.96
2023-07-14T00:28:34.947Z,188.83
2023-07-14T00:29:34.901Z,187.32
2023-07-14T00:30:34.891Z,187.43
2023-07-14T00:31:34.973Z,187.21
2023-07-14T00:32:34.914Z,187.10
2023-07-14T00:33:34.850Z,188.07
2023-07-14T00:34:34.832Z,187.53
2023-07-14T00:35:32.899Z,187.85
2023-07-14T00:36:34.819Z,187.32
2023-07-14T00:37:34.791Z,187.64
2023-07-14T00:38:34.812Z,188.29
2023-07-14T00:39:35.006Z,187.00
2023-07-14T00:40:34.810Z,187.96
2023-07-14T00:41:34.780Z,188.18
2023-07-14T00:42:34.753Z,188.72
2023-07-14T00:43:34.726Z,187.32
2023-07-14T00:44:34.699Z,187.96
2023-07-14T00:45:34.726Z,188.29
2023-07-14T00:46:34.826Z,188.07
2023-07-14T00:47:34.721Z,187.10
2023-07-14T00:48:34.648Z,187.00
2023-07-14T00:49:34.627Z,189.37
2023-07-14T00:50:34.642Z,187.96
2023-07-14T00:51:34.603Z,189.15
2023-07-14T00:52:34.612Z,187.75
2023-07-14T00:53:34.575Z,188.18
2023-07-14T00:54:34.567Z,188.29
2023-07-14T00:55:34.587Z,188.07
2023-07-14T00:56:34.559Z,188.83
2023-07-14T00:57:34.545Z,188.29
2023-07-14T00:58:33.661Z,188.61
2023-07-14T00:59:34.555Z,187.10
2023-07-14T01:00:34.505Z,187.53
2023-07-14T01:01:34.531Z,187.43
2023-07-14T01:02:34.496Z,187.00
2023-07-14T01:03:34.547Z,187.32
2023-07-14T01:04:34.447Z,189.04
2023-07-14T01:05:34.413Z,186.79
2023-07-14T01:06:34.401Z,187.64
2023-07-14T01:07:34.371Z,186.89
2023-07-14T01:08:34.380Z,187.32
2023-07-14T01:09:34.378Z,185.73
2023-07-14T01:10:34.350Z,186.68
2023-07-14T01:11:34.330Z,185.41
2023-07-14T01:12:34.325Z,186.89
2023-07-14T01:13:34.307Z,186.89
2023-07-14T01:14:34.310Z,185.94
2023-07-14T01:15:34.282Z,186.36
2023-07-14T01:16:34.277Z,186.66
2023-07-14T01:17:34.279Z,185.10
2023-07-14T01:18:34.233Z,186.24
2023-07-14T01:19:34.217Z,185.20
2023-07-14T01:20:34.223Z,186.15
2023-07-14T01:21:34.194Z,185.62
2023-07-14T01:22:33.768Z,186.87
2023-07-14T01:23:34.172Z,185.41
2023-07-14T01:24:34.173Z,185.62
2023-07-14T01:25:34.173Z,186.04
2023-07-14T01:26:34.105Z,185.01
2023-07-14T01:27:34.108Z,185.42
2023-07-14T01:28:34.109Z,186.66
2023-07-14T01:29:34.090Z,184.80
2023-07-14T01:30:34.099Z,185.21
2023-07-14T01:31:34.086Z,185.42
2023-07-14T01:32:34.089Z,185.42
2023-07-14T01:33:34.036Z,185.42
2023-07-14T01:34:33.231Z,185.21
2023-07-14T01:35:34.002Z,184.80
2023-07-14T01:36:33.974Z,184.39
2023-07-14T01:37:33.983Z,184.39
2023-07-14T01:38:33.948Z,184.60
2023-07-14T01:39:33.956Z,184.80
2023-07-14T01:40:33.954Z,184.60
2023-07-14T01:41:33.922Z,183.78
2023-07-14T01:42:33.914Z,183.99
2023-07-14T01:43:33.888Z,183.78
2023-07-14T01:44:33.889Z,185.01
2023-07-14T01:45:33.875Z,184.80
2023-07-14T01:46:33.887Z,183.38
2023-07-14T01:47:33.899Z,183.99
2023-07-14T01:48:33.821Z,183.38
2023-07-14T01:49:33.847Z,183.99
2023-07-14T01:50:33.791Z,184.60
2023-07-14T01:51:33.808Z,185.83
2023-07-14T01:52:33.812Z,183.78
2023-07-14T01:53:33.326Z,185.21
2023-07-14T01:54:33.743Z,185.42
2023-07-14T01:55:33.726Z,183.78
2023-07-14T01:56:33.718Z,185.42
2023-07-14T01:57:33.697Z,185.42
2023-07-14T01:58:33.685Z,183.78
2023-07-14T01:59:33.681Z,185.62
2023-07-14T02:00:33.665Z,184.19
2023-07-14T02:01:33.688Z,185.62
2023-07-14T02:02:33.684Z,184.80
2023-07-14T02:03:33.631Z,187.08
2023-07-14T02:04:33.603Z,185.83
2023-07-14T02:05:33.598Z,185.73
2023-07-14T02:06:33.555Z,186.57
2023-07-14T02:07:33.546Z,185.62
2023-07-14T02:08:33.526Z,186.15
2023-07-14T02:09:33.563Z,186.36
2023-07-14T02:10:33.528Z,188.72
2023-07-14T02:11:33.518Z,188.61
2023-07-14T02:12:33.476Z,187.96
2023-07-14T02:13:33.469Z,188.83
2023-07-14T02:14:33.497Z,189.70
2023-07-14T02:15:33.483Z,190.91
2023-07-14T02:16:33.506Z,190.80
2023-07-14T02:17:33.474Z,190.36
2023-07-14T02:18:33.388Z,191.47
2023-07-14T02:19:33.390Z,192.03
2023-07-14T02:20:33.379Z,191.47
2023-07-14T02:21:33.353Z,192.03
2023-07-14T02:22:33.384Z,190.80
2023-07-14T02:23:33.335Z,192.26
2023-07-14T02:24:33.321Z,193.16
2023-07-14T02:25:33.299Z,192.26
2023-07-14T02:26:33.331Z,195.00
2023-07-14T02:27:33.297Z,194.08
2023-07-14T02:28:35.686Z,194.08
2023-07-14T02:29:33.254Z,194.65
2023-07-14T02:30:33.232Z,193.28
2023-07-14T02:31:33.271Z,194.65
2023-07-14T02:32:33.234Z,194.08
2023-07-14T02:33:33.200Z,195.35
2023-07-14T02:34:33.177Z,194.65
2023-07-14T02:35:33.155Z,196.75
2023-07-14T02:36:33.158Z,195.12
2023-07-14T02:37:33.124Z,196.28
2023-07-14T02:38:33.117Z,195.70
2023-07-14T02:39:33.105Z,195.81
2023-07-14T02:40:33.094Z,195.58
2023-07-14T02:41:32.586Z,195.46
2023-07-14T02:42:33.090Z,196.63
2023-07-14T02:43:33.058Z,197.11
2023-07-14T02:44:33.059Z,196.16
2023-07-14T02:45:33.033Z,196.16
2023-07-14T02:46:33.055Z,196.52
2023-07-14T02:47:33.011Z,197.58
2023-07-14T02:48:32.984Z,196.40
2023-07-14T02:49:32.965Z,196.99
2023-07-14T02:50:32.945Z,197.94
2023-07-14T02:51:32.952Z,197.58
2023-07-14T02:52:31.299Z,198.54
2023-07-14T02:53:32.931Z,197.23
2023-07-14T02:54:32.895Z,197.70
2023-07-14T02:55:32.873Z,196.40
2023-07-14T02:56:32.901Z,196.16
2023-07-14T02:57:32.887Z,197.23
2023-07-14T02:58:32.872Z,196.05
2023-07-14T02:59:32.831Z,196.40
2023-07-14T03:00:32.816Z,196.63
2023-07-14T03:01:32.822Z,197.58
2023-07-14T03:02:32.931Z,196.28
2023-07-14T03:03:32.818Z,195.81
2023-07-14T03:04:32.747Z,196.99
2023-07-14T03:05:32.785Z,196.63
2023-07-14T03:06:32.726Z,197.35
2023-07-14T03:07:32.739Z,196.05
2023-07-14T03:08:32.691Z,196.52
2023-07-14T03:09:32.677Z,195.23
2023-07-14T03:10:32.673Z,194.42
2023-07-14T03:11:32.679Z,194.88
2023-07-14T03:12:32.652Z,196.16
2023-07-14T03:13:32.646Z,197.11
2023-07-14T03:14:32.608Z,195.35
2023-07-14T03:15:32.622Z,194.77
2023-07-14T03:16:32.632Z,194.77
2023-07-14T03:17:32.125Z,195.81
2023-07-14T03:18:32.566Z,196.75
2023-07-14T03:19:32.543Z,194.88
2023-07-14T03:20:32.542Z,195.46
2023-07-14T03:21:32.554Z,195.81
2023-07-14T03:22:32.532Z,196.16
2023-07-14T03:23:32.511Z,195.70
2023-07-14T03:24:32.475Z,195.35
2023-07-14T03:25:32.471Z,195.81
2023-07-14T03:26:32.447Z,195.46
2023-07-14T03:27:32.440Z,196.05
2023-07-14T03:28:32.429Z,196.05
2023-07-14T03:29:32.418Z,196.05
2023-07-14T03:30:32.400Z,196.87
2023-07-14T03:31:32.450Z,196.05
2023-07-14T03:32:30.698Z,194.42
2023-07-14T03:33:32.343Z,195.00
2023-07-14T03:34:32.330Z,195.81
2023-07-14T03:35:32.329Z,195.00
2023-07-14T03:36:32.291Z,196.05
2023-07-14T03:37:32.304Z,194.31
2023-07-14T03:38:32.283Z,195.70
2023-07-14T03:39:32.273Z,194.08
2023-07-14T03:40:32.252Z,194.19
2023-07-14T03:41:32.239Z,193.16
2023-07-14T03:42:32.228Z,194.88
2023-07-14T03:43:32.212Z,193.85
2023-07-14T03:44:32.306Z,192.37
2023-07-14T03:45:32.189Z,193.85
2023-07-14T03:46:32.213Z,192.37
2023-07-14T03:47:32.189Z,192.71
2023-07-14T03:48:32.143Z,192.03
2023-07-14T03:49:32.139Z,193.85
2023-07-14T03:50:32.108Z,193.39
2023-07-14T03:51:32.087Z,192.71
2023-07-14T03:52:32.078Z,192.37
2023-07-14T03:53:32.090Z,192.37
2023-07-14T03:54:32.062Z,191.58
2023-07-14T03:55:32.038Z,191.70
2023-07-14T03:56:32.053Z,190.69
2023-07-14T03:57:32.014Z,189.37
2023-07-14T03:58:31.993Z,191.81
2023-07-14T03:59:32.017Z,189.59
2023-07-14T04:00:32.034Z,190.47
2023-07-14T04:01:32.050Z,191.14
2023-07-14T04:02:31.985Z,190.25
2023-07-14T04:03:32.046Z,190.80
2023-07-14T04:04:31.936Z,191.25
2023-07-14T04:05:31.915Z,190.69
2023-07-14T04:06:31.934Z,190.03
2023-07-14T04:07:31.879Z,189.92
2023-07-14T04:08:31.857Z,190.91
2023-07-14T04:09:31.877Z,190.14
2023-07-14T04:10:31.854Z,190.80
2023-07-14T04:11:31.831Z,189.59
2023-07-14T04:12:31.808Z,188.94
2023-07-14T04:13:31.849Z,190.14
2023-07-14T04:14:31.785Z,189.37
2023-07-14T04:15:31.765Z,189.59
2023-07-14T04:16:31.783Z,190.25
2023-07-14T04:17:31.796Z,189.37
2023-07-14T04:18:31.757Z,189.37
2023-07-14T04:19:31.741Z,188.50
2023-07-14T04:20:31.708Z,189.26
2023-07-14T04:21:31.688Z,188.18
2023-07-14T04:22:31.730Z,187.75
2023-07-14T04:23:31.804Z,188.18
2023-07-14T04:24:31.631Z,187.32
2023-07-14T04:25:31.660Z,186.57
2023-07-14T04:26:31.623Z,188.29
2023-07-14T04:27:31.626Z,186.04
2023-07-14T04:28:31.666Z,187.21
2023-07-14T04:29:31.571Z,187.64
2023-07-14T04:30:31.566Z,185.52
2023-07-14T04:31:31.618Z,186.15
2023-07-14T04:32:31.571Z,184.79
2023-07-14T04:33:31.545Z,185.31
2023-07-14T04:34:31.492Z,185.83
2023-07-14T04:35:31.504Z,186.24
2023-07-14T04:36:31.470Z,185.42
2023-07-14T04:37:31.463Z,186.04
2023-07-14T04:38:31.451Z,186.45
2023-07-14T04:39:31.536Z,185.21
2023-07-14T04:40:36.183Z,186.24
2023-07-14T04:41:32.470Z,185.62
2023-07-14T04:42:31.399Z,184.60
2023-07-14T04:43:31.394Z,185.83
2023-07-14T04:44:32.926Z,184.39
2023-07-14T04:45:31.464Z,184.19
2023-07-14T04:46:31.516Z,184.60
2023-07-14T04:47:31.397Z,183.78
2023-07-14T04:48:31.316Z,183.38
2023-07-14T04:49:31.298Z,182.58
2023-07-14T04:50:31.292Z,181.98
2023-07-14T04:51:31.314Z,182.58
2023-07-14T04:52:31.273Z,181.39
2023-07-14T04:53:31.242Z,180.60
2023-07-14T04:54:31.228Z,180.21
2023-07-14T04:55:31.303Z,178.86
2023-07-14T04:56:31.224Z,180.02
2023-07-14T04:57:31.182Z,177.53
2023-07-14T04:58:31.168Z,177.90
2023-07-14T04:59:31.159Z,176.59
2023-07-14T05:00:31.142Z,176.21
2023-07-14T05:01:31.170Z,174.37
2023-07-14T05:02:31.217Z,172.75
2023-07-14T05:03:31.247Z,171.51
2023-07-14T05:04:30.611Z,171.86
2023-07-14T05:05:31.089Z,169.76
2023-07-14T05:06:31.071Z,170.98
2023-07-14T05:07:31.041Z,170.11
2023-07-14T05:08:31.042Z,170.28
2023-07-14T05:09:31.030Z,168.90
2023-07-14T05:10:31.023Z,168.90
2023-07-14T05:11:31.021Z,168.56
2023-07-14T05:12:31.031Z,167.54
2023-07-14T05:13:31.010Z,168.05
2023-07-14T05:14:30.970Z,166.21
2023-07-14T05:15:30.956Z,165.39
2023-07-14T05:16:30.972Z,165.55
2023-07-14T05:17:30.943Z,164.25
2023-07-14T05:18:30.892Z,164.09
2023-07-14T05:19:30.407Z,163.92
2023-07-14T05:20:30.892Z,163.12
2023-07-14T05:21:28.995Z,162.17
2023-07-14T05:22:30.874Z,162.01
2023-07-14T05:23:30.827Z,161.23
2023-07-14T05:24:30.846Z,160.46
2023-07-14T05:25:30.871Z,159.84
2023-07-14T05:26:30.810Z,158.93
2023-07-14T05:27:30.771Z,157.88
2023-07-14T05:28:30.776Z,158.18
2023-07-14T05:29:30.767Z,157.73
2023-07-14T05:30:30.756Z,154.80
2023-07-14T05:31:30.751Z,153.94
2023-07-14T05:32:30.734Z,153.52
2023-07-14T05:33:30.687Z,152.26
2023-07-14T05:34:30.758Z,151.84
2023-07-14T05:35:30.663Z,152.40
2023-07-14T05:36:30.640Z,151.84
2023-07-14T05:37:30.692Z,150.61
2023-07-14T05:38:30.622Z,149.40
2023-07-14T05:39:30.606Z,149.53
2023-07-14T05:40:38.340Z,149.53
2023-07-14T05:41:31.572Z,148.46
2023-07-14T05:42:30.562Z,148.60
2023-07-14T05:43:30.561Z,148.46
2023-07-14T05:44:30.538Z,147.03
2023-07-14T05:45:30.523Z,146.77
2023-07-14T05:46:30.547Z,146.00
2023-07-14T05:47:30.527Z,145.62
2023-07-14T05:48:30.496Z,146.00
2023-07-14T05:49:30.471Z,146.12
2023-07-14T05:50:30.448Z,146.38
2023-07-14T05:51:30.442Z,146.12
2023-07-14T05:52:30.434Z,146.12
2023-07-14T05:53:30.430Z,145.11
2023-07-14T05:54:30.386Z,146.00
2023-07-14T05:55:30.377Z,146.00
2023-07-14T05:56:30.358Z,146.12
2023-07-14T05:57:30.357Z,146.12
2023-07-14T05:58:30.331Z,146.25
2023-07-14T05:59:30.320Z,145.87
2023-07-14T06:00:30.399Z,146.00
2023-07-14T06:01:30.320Z,146.00
2023-07-14T06:02:30.359Z,145.87
2023-07-14T06:03:30.482Z,145.87
2023-07-14T06:04:30.254Z,145.36
2023-07-14T06:05:30.234Z,146.00
2023-07-14T06:06:30.214Z,146.00
2023-07-14T06:07:30.224Z,147.55
2023-07-14T06:08:30.196Z,148.46
2023-07-14T06:09:30.192Z,148.20
2023-07-14T06:10:30.231Z,146.12
2023-07-14T06:11:30.160Z,146.00
2023-07-14T06:12:30.004Z,144.98
2023-07-14T06:13:30.127Z,146.25
2023-07-14T06:14:30.137Z,145.87
2023-07-14T06:15:30.134Z,146.00
2023-07-14T06:16:30.106Z,145.62
2023-07-14T06:17:30.112Z,145.87
2023-07-14T06:18:30.048Z,144.36
2023-07-14T06:19:30.032Z,146.90
2023-07-14T06:20:32.219Z,146.64
2023-07-14T06:21:30.031Z,144.11
2023-07-14T06:22:30.035Z,143.73
2023-07-14T06:23:29.991Z,145.49
2023-07-14T06:24:29.997Z,143.24
2023-07-14T06:25:29.972Z,145.74
2023-07-14T06:26:29.959Z,145.11
2023-07-14T06:27:29.930Z,146.00
2023-07-14T06:28:29.926Z,146.77
2023-07-14T06:29:29.907Z,147.16
2023-07-14T06:30:30.604Z,147.16
2023-07-14T06:31:30.144Z,147.42
2023-07-14T06:32:29.908Z,146.64
2023-07-14T06:33:29.860Z,146.64
2023-07-14T06:34:29.837Z,146.38
2023-07-14T06:35:29.853Z,145.36
2023-07-14T06:36:29.806Z,144.86
2023-07-14T06:37:29.794Z,144.36
2023-07-14T06:38:29.790Z,143.73
2023-07-14T06:39:29.781Z,142.75
2023-07-14T06:40:29.790Z,142.75
2023-07-14T06:41:29.723Z,142.26
2023-07-14T06:42:29.958Z,142.75
2023-07-14T06:43:29.703Z,143.98
2023-07-14T06:44:29.693Z,143.24
2023-07-14T06:45:29.707Z,143.24
2023-07-14T06:46:29.715Z,144.36
2023-07-14T06:47:29.743Z,147.16
2023-07-14T06:48:29.649Z,148.86
2023-07-14T06:49:29.688Z,150.88
2023-07-14T06:50:29.632Z,150.47
2023-07-14T06:51:29.591Z,151.84
2023-07-14T06:52:29.591Z,152.12
2023-07-14T06:53:29.599Z,151.57
2023-07-14T06:54:29.583Z,151.71
2023-07-14T06:55:29.554Z,150.07
2023-07-14T06:56:29.530Z,150.20
2023-07-14T06:57:29.520Z,149.13
2023-07-14T06:58:29.507Z,147.03
2023-07-14T06:59:29.492Z,147.42
2023-07-14T07:00:29.489Z,146.90
2023-07-14T07:01:29.467Z,147.55
2023-07-14T07:02:29.455Z,147.68
2023-07-14T07:03:29.442Z,149.00
2023-07-14T07:04:29.426Z,150.47
2023-07-14T07:05:29.465Z,153.52
2023-07-14T07:06:29.393Z,155.38
2023-07-14T07:07:29.369Z,155.09
2023-07-14T07:08:29.378Z,156.54
2023-07-14T07:09:29.364Z,156.99
2023-07-14T07:10:29.382Z,156.99
2023-07-14T07:11:29.326Z,157.43
2023-07-14T07:12:29.320Z,157.43
2023-07-14T07:13:29.302Z,158.48
2023-07-14T07:14:29.328Z,158.63
2023-07-14T07:15:29.271Z,158.48
2023-07-14T07:16:28.893Z,158.93
2023-07-14T07:17:29.296Z,162.01
2023-07-14T07:18:29.226Z,163.92
2023-07-14T07:19:29.222Z,165.22
2023-07-14T07:20:29.218Z,168.39
2023-07-14T07:21:29.183Z,169.59
2023-07-14T07:22:29.295Z,170.80
2023-07-14T07:23:29.239Z,171.51
2023-07-14T07:24:29.152Z,172.75
2023-07-14T07:25:29.154Z,174.19
2023-07-14T07:26:29.178Z,174.55
2023-07-14T07:27:29.164Z,177.53
2023-07-14T07:28:29.100Z,179.43
2023-07-14T07:29:29.091Z,180.40
2023-07-14T07:30:29.072Z,182.18
2023-07-14T07:31:29.129Z,184.19
2023-07-14T07:32:29.147Z,184.39
2023-07-14T07:33:29.044Z,185.10
2023-07-14T07:34:29.035Z,187.32
2023-07-14T07:35:29.042Z,187.32
2023-07-14T07:36:28.056Z,189.15
2023-07-14T07:37:29.005Z,190.91
2023-07-14T07:38:28.966Z,192.60
2023-07-14T07:39:28.957Z,196.99
2023-07-14T07:40:28.929Z,203.46
2023-07-14T07:41:29.090Z,208.11
2023-07-14T07:42:28.929Z,210.92
2023-07-14T07:43:28.951Z,219.97
2023-07-14T07:44:31.429Z,232.93
2023-07-14T07:45:28.858Z,239.91
2023-07-14T07:46:28.969Z,246.77
2023-07-14T07:47:28.863Z,250.35
2023-07-14T07:48:28.838Z,253.64
2023-07-14T07:49:28.848Z,257.01
2023-07-14T07:50:28.794Z,261.31
2023-07-14T07:51:28.930Z,267.93
2023-07-14T07:52:28.776Z,272.37
2023-07-14T07:53:28.773Z,282.46
2023-07-14T07:54:28.750Z,287.15
2023-07-14T07:55:28.338Z,298.38
2023-07-14T07:56:28.738Z,311.41
2023-07-14T07:57:28.728Z,311.11
2023-07-14T07:58:28.715Z,318.98
2023-07-14T07:59:28.692Z,319.60
2023-07-14T08:00:28.681Z,323.06
2023-07-14T08:01:28.713Z,331.21
2023-07-14T08:02:28.743Z,335.27
2023-07-14T08:03:28.908Z,342.98
2023-07-14T08:04:28.610Z,346.24
2023-07-14T08:05:28.617Z,354.09
2023-07-14T08:06:28.606Z,365.53
2023-07-14T08:07:28.583Z,361.90
2023-07-14T08:08:28.559Z,373.01
2023-07-14T08:09:28.567Z,373.43
2023-07-14T08:10:28.559Z,368.81
2023-07-14T08:11:28.529Z,375.14
2023-07-14T08:12:28.513Z,378.17
2023-07-14T08:13:28.496Z,384.79
2023-07-14T08:14:28.524Z,387.24
2023-07-14T08:15:28.485Z,385.90
2023-07-14T08:16:28.485Z,389.73
2023-07-14T08:17:28.487Z,395.98
2023-07-14T08:18:28.055Z,403.90
2023-07-14T08:19:28.441Z,407.10
2023-07-14T08:20:28.401Z,407.60
2023-07-14T08:21:28.393Z,416.51
2023-07-14T08:22:28.425Z,423.92
2023-07-14T08:23:29.611Z,424.46
2023-07-14T08:24:28.354Z,428.83
2023-07-14T08:25:28.394Z,428.83
2023-07-14T08:26:28.319Z,434.14
2023-07-14T08:27:28.303Z,439.86
2023-07-14T08:28:28.361Z,441.90
2023-07-14T08:29:28.351Z,448.44
2023-07-14T08:30:27.830Z,449.65
2023-07-14T08:31:28.281Z,455.18
2023-07-14T08:32:28.269Z,454.87
2023-07-14T08:33:28.250Z,450.26
2023-07-14T08:34:28.210Z,458.62
2023-07-14T08:35:28.214Z,463.72
2023-07-14T08:36:28.185Z,466.64
2023-07-14T08:37:28.184Z,473.94
2023-07-14T08:38:28.190Z,477.67
2023-07-14T08:39:28.161Z,484.97
2023-07-14T08:40:28.186Z,486.39
2023-07-14T08:41:28.132Z,487.10
2023-07-14T08:42:28.120Z,487.81
2023-07-14T08:43:28.127Z,486.39
2023-07-14T08:44:28.077Z,491.77
2023-07-14T08:45:28.100Z,495.79
2023-07-14T08:46:28.182Z,496.52
2023-07-14T08:47:28.066Z,502.51
2023-07-14T08:48:28.041Z,497.27
2023-07-14T08:49:28.021Z,491.04
2023-07-14T08:50:28.005Z,492.49
2023-07-14T08:51:27.984Z,494.68
2023-07-14T08:52:28.011Z,502.89
2023-07-14T08:53:27.988Z,507.48
2023-07-14T08:54:27.944Z,516.12
2023-07-14T08:55:27.963Z,516.92
2023-07-14T08:56:27.917Z,525.48
2023-07-14T08:57:27.931Z,531.34
2023-07-14T08:58:27.909Z,539.95
2023-07-14T08:59:27.884Z,546.59
2023-07-14T09:00:27.860Z,553.39
2023-07-14T09:01:27.938Z,566.07
2023-07-14T09:02:28.002Z,572.39
2023-07-14T09:03:27.887Z,568.00
2023-07-14T09:04:27.807Z,570.92
2023-07-14T09:05:27.800Z,563.20
2023-07-14T09:06:28.173Z,569.94
2023-07-14T09:07:27.776Z,574.36
2023-07-14T09:08:27.768Z,574.86
2023-07-14T09:09:27.733Z,584.43
2023-07-14T09:10:27.732Z,587.52
2023-07-14T09:11:27.729Z,587.52
2023-07-14T09:12:27.702Z,596.99
2023-07-14T09:13:27.684Z,607.87
2023-07-14T09:14:27.701Z,614.03
2023-07-14T09:15:27.651Z,618.58
2023-07-14T09:16:27.689Z,619.16
2023-07-14T09:17:27.653Z,632.07
2023-07-14T09:18:27.703Z,639.34
2023-07-14T09:19:27.604Z,650.57
2023-07-14T09:20:27.605Z,655.69
2023-07-14T09:21:27.598Z,672.21
2023-07-14T09:22:27.590Z,672.21
2023-07-14T09:23:27.541Z,679.06
2023-07-14T09:24:27.527Z,687.46
2023-07-14T09:25:27.537Z,679.06
2023-07-14T09:26:27.519Z,673.57
2023-07-14T09:27:27.481Z,673.57
2023-07-14T09:28:27.483Z,685.34
2023-07-14T09:29:27.466Z,687.46
2023-07-14T09:30:27.485Z,698.99
2023-07-14T09:31:27.490Z,702.67
2023-07-14T09:32:27.462Z,705.64
2023-07-14T09:33:27.420Z,717.03
2023-07-14T09:34:27.439Z,720.12
2023-07-14T09:35:27.405Z,723.25
2023-07-14T09:36:27.382Z,724.82
2023-07-14T09:37:27.364Z,717.03
2023-07-14T09:38:27.357Z,712.43
2023-07-14T09:39:27.355Z,716.26
2023-07-14T09:40:27.333Z,716.26
2023-07-14T09:41:27.312Z,725.61
2023-07-14T09:42:27.216Z,731.98
2023-07-14T09:43:27.313Z,734.40
2023-07-14T09:44:27.284Z,729.58
2023-07-14T09:45:27.258Z,736.02
2023-07-14T09:46:27.294Z,744.23
2023-07-14T09:47:30.018Z,740.93
2023-07-14T09:48:27.235Z,752.54
2023-07-14T09:49:26.943Z,746.73
2023-07-14T09:50:27.200Z,745.90
2023-07-14T09:51:27.175Z,752.11
2023-07-14T09:52:27.210Z,755.95
2023-07-14T09:53:27.190Z,748.74
2023-07-14T09:54:27.158Z,744.23
2023-07-14T09:55:27.160Z,752.11
2023-07-14T09:56:27.128Z,746.64
2023-07-14T09:57:38.811Z,757.23
2023-07-14T09:58:28.135Z,757.66
2023-07-14T09:59:27.084Z,767.24
2023-07-14T10:00:27.105Z,767.24
2023-07-14T10:01:27.831Z,769.45
2023-07-14T10:02:25.177Z,767.24
2023-07-14T10:03:42.223Z,756.37
2023-07-14T10:04:28.044Z,777.52
2023-07-14T10:05:27.006Z,779.33
2023-07-14T10:06:27.001Z,763.73
2023-07-14T10:07:27.506Z,776.16
2023-07-14T10:08:27.036Z,779.33
2023-07-14T10:09:26.981Z,777.07
2023-07-14T10:10:26.984Z,782.53
2023-07-14T10:11:26.954Z,771.68
2023-07-14T10:12:26.965Z,783.45
2023-07-14T10:13:26.922Z,780.24
2023-07-14T10:14:26.948Z,781.16
2023-07-14T10:15:26.918Z,779.79
2023-07-14T10:16:26.930Z,780.70
2023-07-14T10:17:27.017Z,788.54
2023-07-14T10:18:26.916Z,797.02
2023-07-14T10:19:26.838Z,809.09
2023-07-14T10:20:26.834Z,820.53
2023-07-14T10:21:26.854Z,818.02
2023-07-14T10:22:26.933Z,802.28
2023-07-14T10:23:26.792Z,810.07
2023-07-14T10:24:26.849Z,818.02
2023-07-14T10:25:27.253Z,824.07
2023-07-14T10:26:26.745Z,828.16
2023-07-14T10:27:26.801Z,835.94
2023-07-14T10:28:26.700Z,848.70
2023-07-14T10:29:26.729Z,867.45
2023-07-14T10:30:26.679Z,860.18
2023-07-14T10:31:26.708Z,868.01
2023-07-14T10:32:26.750Z,877.14
2023-07-14T10:33:26.645Z,891.78
2023-07-14T10:34:26.631Z,900.20
2023-07-14T10:35:26.195Z,904.47
2023-07-14T10:36:27.333Z,908.78
2023-07-14T10:37:27.054Z,912.51
2023-07-14T10:38:26.596Z,914.38
2023-07-14T10:39:26.544Z,931.61
2023-07-14T10:40:26.561Z,924.52
2023-07-14T10:41:26.553Z,927.73
2023-07-14T10:42:26.500Z,930.31
2023-07-14T10:43:27.417Z,928.37
2023-07-14T10:44:26.474Z,934.22
2023-07-14T10:45:26.480Z,932.91
2023-07-14T10:46:26.482Z,933.57
2023-07-14T10:47:26.478Z,928.37
2023-07-14T10:48:26.402Z,940.14
2023-07-14T10:49:26.457Z,937.50
2023-07-14T10:50:26.400Z,930.31
2023-07-14T10:51:26.421Z,918.79
2023-07-14T10:52:28.260Z,918.16
2023-07-14T10:53:26.365Z,921.33
2023-07-14T10:54:26.339Z,927.08
2023-07-14T10:55:26.342Z,934.87
2023-07-14T10:56:26.339Z,927.73
2023-07-14T10:57:26.292Z,931.61
2023-07-14T10:58:26.335Z,943.46
2023-07-14T10:59:26.273Z,952.21
2023-07-14T11:00:26.290Z,959.74
2023-07-14T11:01:26.268Z,965.29
2023-07-14T11:02:26.298Z,973.03
2023-07-14T11:03:26.383Z,969.50
2023-07-14T11:04:26.337Z,958.36
2023-07-14T11:05:26.245Z,958.36
2023-07-14T11:06:26.160Z,948.83
2023-07-14T11:07:26.166Z,947.48
2023-07-14T11:08:26.200Z,959.05
2023-07-14T11:09:26.182Z,957.68
2023-07-14T11:10:26.885Z,968.79
2023-07-14T11:11:26.119Z,976.59
2023-07-14T11:12:26.088Z,970.20
2023-07-14T11:13:26.081Z,988.16
2023-07-14T11:14:26.151Z,1000.75
2023-07-14T11:15:26.065Z,1002.25
2023-07-14T11:16:26.104Z,993.30
2023-07-14T11:17:26.152Z,1009.83
2023-07-14T11:18:26.044Z,1009.07
2023-07-14T11:19:41.207Z,1002.25
2023-07-14T11:20:27.000Z,985.24
2023-07-14T11:21:26.013Z,969.50
2023-07-14T11:22:26.025Z,954.94
2023-07-14T11:23:25.950Z,970.91
2023-07-14T11:24:25.950Z,975.16
2023-07-14T11:25:25.924Z,981.62
2023-07-14T11:26:25.910Z,988.16
2023-07-14T11:27:25.948Z,978.02
2023-07-14T11:28:25.872Z,984.51
2023-07-14T11:29:25.855Z,991.83
2023-07-14T11:30:25.843Z,991.83
2023-07-14T11:31:25.870Z,997.76
2023-07-14T11:32:25.849Z,1009.83
2023-07-14T11:33:25.821Z,1019.08
2023-07-14T11:34:25.809Z,1019.86
2023-07-14T11:35:25.797Z,1019.86
2023-07-14T11:36:25.785Z,1018.31
2023-07-14T11:37:25.780Z,1009.07
2023-07-14T11:38:25.752Z,998.50
2023-07-14T11:39:25.715Z,1003.76
2023-07-14T11:40:25.713Z,1006.03
2023-07-14T11:41:25.705Z,988.89
2023-07-14T11:42:25.714Z,992.57
2023-07-14T11:43:25.668Z,995.53
2023-07-14T11:44:25.113Z,1009.83
2023-07-14T11:45:25.650Z,1013.67
2023-07-14T11:46:25.764Z,1001.50
2023-07-14T11:47:25.638Z,989.62
2023-07-14T11:48:25.602Z,965.99
2023-07-14T11:49:25.611Z,979.46
2023-07-14T11:50:39.777Z,985.97
2023-07-14T11:51:26.572Z,977.31
2023-07-14T11:52:25.583Z,968.79
2023-07-14T11:53:25.526Z,956.99
2023-07-14T11:54:25.515Z,963.20
2023-07-14T11:55:25.508Z,981.62
2023-07-14T11:56:25.507Z,970.91
2023-07-14T11:57:25.509Z,961.82
2023-07-14T11:58:25.447Z,942.13
2023-07-14T11:59:25.450Z,936.18
2023-07-14T12:00:25.446Z,929.02
2023-07-14T12:01:25.438Z,917.53
2023-07-14T12:02:25.550Z,906.31
2023-07-14T12:03:34.065Z,901.42
2023-07-14T12:04:26.454Z,891.19
2023-07-14T12:05:25.396Z,875.98
2023-07-14T12:06:25.390Z,871.98
2023-07-14T12:07:25.343Z,893.57
2023-07-14T12:08:25.366Z,918.16
2023-07-14T12:09:25.323Z,931.61
2023-07-14T12:10:25.381Z,954.94
2023-07-14T12:11:39.717Z,967.39
2023-07-14T12:12:25.108Z,994.04
2023-07-14T12:13:25.245Z,1001.50
2023-07-14T12:14:25.260Z,1009.83
2023-07-14T12:15:25.241Z,1016.76
2023-07-14T12:16:25.239Z,1019.86
2023-07-14T12:17:25.253Z,1026.92
2023-07-14T12:18:25.185Z,1038.91
2023-07-14T12:19:25.156Z,1042.97
2023-07-14T12:20:25.167Z,1039.72
2023-07-14T12:21:25.151Z,1019.86
2023-07-14T12:22:25.191Z,1019.86
2023-07-14T12:23:25.119Z,1028.51
2023-07-14T12:24:25.116Z,1032.48
2023-07-14T12:25:25.119Z,1046.24
2023-07-14T12:26:25.083Z,1061.21
2023-07-14T12:27:25.056Z,1068.00